createdAt,value
2023-08-22T00:00:35.951Z,17.62
2023-08-22T00:03:05.959Z,17.59
2023-08-22T00:05:36.137Z,17.57
2023-08-22T00:08:06.520Z,17.57
2023-08-22T00:10:35.017Z,17.60
2023-08-22T00:13:03.919Z,17.70
2023-08-22T00:15:32.657Z,17.80
2023-08-22T00:18:00.729Z,17.88
2023-08-22T00:20:30.530Z,17.92
2023-08-22T00:22:58.744Z,17.94
2023-08-22T00:25:27.017Z,17.89
2023-08-22T00:27:58.004Z,17.82
2023-08-22T00:30:26.017Z,17.73
2023-08-22T00:32:53.971Z,17.75
2023-08-22T00:35:25.929Z,17.73
2023-08-22T00:37:55.283Z,17.69
2023-08-22T00:40:23.264Z,17.60
2023-08-22T00:42:51.550Z,17.55
2023-08-22T00:45:19.763Z,17.49
2023-08-22T00:47:47.897Z,17.42
2023-08-22T00:50:15.974Z,17.41
2023-08-22T00:52:44.068Z,17.36
2023-08-22T00:55:14.796Z,17.30
2023-08-22T00:57:43.708Z,17.27
2023-08-22T01:00:12.246Z,17.31
2023-08-22T01:02:42.651Z,17.32
2023-08-22T01:05:12.077Z,17.33
2023-08-22T01:07:47.906Z,17.29
2023-08-22T01:10:21.362Z,17.24
2023-08-22T01:12:59.885Z,17.27
2023-08-22T01:15:29.496Z,17.27
2023-08-22T01:17:59.651Z,17.21
2023-08-22T01:20:28.864Z,17.18
2023-08-22T01:22:59.336Z,17.05
2023-08-22T01:25:28.532Z,16.98
2023-08-22T01:28:10.643Z,16.97
2023-08-22T01:30:49.089Z,17.02
2023-08-22T01:33:25.106Z,17.01
2023-08-22T01:35:56.949Z,17.05
2023-08-22T01:38:30.089Z,17.07
2023-08-22T01:40:59.346Z,17.05
2023-08-22T01:43:27.270Z,16.99
2023-08-22T01:45:55.468Z,16.92
2023-08-22T01:48:23.421Z,16.93
2023-08-22T01:50:51.503Z,16.94
2023-08-22T01:53:19.440Z,16.97
2023-08-22T01:55:48.731Z,16.98
2023-08-22T01:58:16.633Z,16.94
2023-08-22T02:00:44.519Z,16.94
2023-08-22T02:03:12.711Z,16.97
2023-08-22T02:05:40.671Z,16.96
2023-08-22T02:08:08.550Z,16.97
2023-08-22T02:10:36.488Z,16.97
2023-08-22T02:13:06.063Z,17.03
2023-08-22T02:15:34.154Z,17.00
2023-08-22T02:18:03.404Z,16.88
2023-08-22T02:20:31.760Z,16.79
2023-08-22T02:22:59.824Z,16.71
2023-08-22T02:25:28.514Z,16.61
2023-08-22T02:27:56.712Z,16.58
2023-08-22T02:30:26.480Z,16.54
2023-08-22T02:32:54.641Z,16.55
2023-08-22T02:35:22.588Z,16.58
2023-08-22T02:37:52.552Z,16.59
2023-08-22T02:40:20.730Z,16.66
2023-08-22T02:42:48.656Z,16.70
2023-08-22T02:45:16.934Z,16.71
2023-08-22T02:47:46.362Z,16.73
2023-08-22T02:50:14.460Z,16.75
2023-08-22T02:52:42.392Z,17.02
2023-08-22T02:55:10.723Z,19.58
2023-08-22T02:57:38.922Z,19.92
2023-08-22T03:00:09.387Z,19.15
2023-08-22T03:02:37.449Z,18.76
2023-08-22T03:05:08.913Z,18.48
2023-08-22T03:07:37.569Z,18.31
2023-08-22T03:10:05.954Z,18.11
2023-08-22T03:12:33.874Z,17.73
2023-08-22T03:15:05.621Z,17.64
2023-08-22T03:17:33.581Z,17.54
2023-08-22T03:20:02.847Z,18.17
2023-08-22T03:22:32.131Z,17.97
2023-08-22T03:25:00.058Z,17.67
2023-08-22T03:27:27.983Z,17.61
2023-08-22T03:29:55.827Z,17.80
2023-08-22T03:32:24.713Z,17.44
2023-08-22T03:34:53.313Z,17.25
2023-08-22T03:37:21.195Z,17.14
2023-08-22T03:39:50.457Z,17.19
2023-08-22T03:42:18.297Z,17.38
2023-08-22T03:44:46.948Z,17.33
2023-08-22T03:47:15.083Z,17.29
2023-08-22T03:49:43.162Z,17.42
2023-08-22T03:52:11.159Z,19.39
2023-08-22T03:55:06.511Z,20.99
2023-08-22T03:57:34.416Z,19.01
2023-08-22T04:00:02.363Z,18.17
2023-08-22T04:02:30.407Z,18.11
2023-08-22T04:04:59.124Z,18.66
2023-08-22T04:07:27.420Z,18.19
2023-08-22T04:09:55.358Z,17.92
2023-08-22T04:12:25.066Z,17.73
2023-08-22T04:14:53.144Z,17.72
2023-08-22T04:17:21.318Z,17.92
2023-08-22T04:19:49.462Z,18.74
2023-08-22T04:22:17.506Z,20.08
2023-08-22T04:24:45.480Z,19.84
2023-08-22T04:27:14.346Z,18.99
2023-08-22T04:29:44.142Z,18.61
2023-08-22T04:32:12.249Z,18.58
2023-08-22T04:34:42.991Z,19.79
2023-08-22T04:37:10.922Z,21.05
2023-08-22T04:39:38.959Z,20.07
2023-08-22T04:42:07.931Z,20.39
2023-08-22T04:44:35.830Z,20.84
2023-08-22T04:47:05.578Z,20.79
2023-08-22T04:49:33.485Z,20.77
2023-08-22T04:52:01.431Z,20.95
2023-08-22T04:54:29.316Z,21.62
2023-08-22T04:56:57.362Z,21.54
2023-08-22T04:59:25.559Z,21.16
2023-08-22T05:01:54.098Z,20.57
2023-08-22T05:04:23.613Z,20.18
2023-08-22T05:06:51.601Z,20.13
2023-08-22T05:09:19.811Z,20.41
2023-08-22T05:11:47.700Z,20.83
2023-08-22T05:14:15.641Z,20.67
2023-08-22T05:16:44.857Z,20.26
2023-08-22T05:19:12.832Z,21.08
2023-08-22T05:21:42.254Z,20.87
2023-08-22T05:24:10.203Z,20.46
2023-08-22T05:26:38.104Z,20.47
2023-08-22T05:29:05.929Z,20.12
2023-08-22T05:31:34.200Z,20.18
2023-08-22T05:34:04.014Z,20.08
2023-08-22T05:36:33.533Z,19.69
2023-08-22T05:39:05.697Z,19.41
2023-08-22T05:41:33.589Z,19.23
2023-08-22T05:44:01.592Z,19.14
2023-08-22T05:46:32.148Z,19.05
2023-08-22T05:49:00.295Z,19.22
2023-08-22T05:51:28.562Z,19.47
2023-08-22T05:53:56.569Z,19.77
2023-08-22T05:56:25.840Z,20.75
2023-08-22T05:58:54.041Z,20.25
2023-08-22T06:01:22.540Z,20.74
2023-08-22T06:03:50.776Z,20.49
2023-08-22T06:06:18.688Z,20.62
2023-08-22T06:08:46.578Z,20.82
2023-08-22T06:11:14.433Z,20.85
2023-08-22T06:13:43.934Z,20.89
2023-08-22T06:16:12.346Z,21.03
2023-08-22T06:18:40.320Z,20.82
2023-08-22T06:21:08.219Z,20.79
2023-08-22T06:23:36.150Z,20.57
2023-08-22T06:26:04.117Z,21.14
2023-08-22T06:28:35.504Z,21.29
2023-08-22T06:31:13.412Z,21.33
2023-08-22T06:33:41.562Z,21.10
2023-08-22T06:36:10.068Z,21.07
2023-08-22T06:38:38.775Z,20.79
2023-08-22T06:41:06.979Z,21.01
2023-08-22T06:43:34.901Z,21.68
2023-08-22T06:46:04.273Z,21.84
2023-08-22T06:48:41.824Z,21.94
2023-08-22T06:51:10.598Z,22.25
2023-08-22T06:53:38.691Z,22.08
2023-08-22T06:56:06.622Z,21.34
2023-08-22T06:58:34.653Z,20.96
2023-08-22T07:01:06.677Z,20.73
2023-08-22T07:03:34.774Z,20.63
2023-08-22T07:06:03.190Z,20.67
2023-08-22T07:08:31.215Z,21.18
2023-08-22T07:11:03.394Z,22.26
2023-08-22T07:13:31.414Z,22.45
2023-08-22T07:15:59.329Z,22.32
2023-08-22T07:18:29.564Z,22.46
2023-08-22T07:20:57.546Z,22.39
2023-08-22T07:23:25.519Z,22.37
2023-08-22T07:25:53.870Z,22.39
2023-08-22T07:28:21.795Z,22.48
2023-08-22T07:30:49.970Z,22.66
2023-08-22T07:33:18.019Z,22.53
2023-08-22T07:35:47.685Z,22.75
2023-08-22T07:38:15.622Z,22.52
2023-08-22T07:40:44.782Z,22.39
2023-08-22T07:43:13.524Z,22.31
2023-08-22T07:45:41.616Z,22.57
2023-08-22T07:48:09.628Z,22.38
2023-08-22T07:50:37.766Z,22.21
2023-08-22T07:53:08.249Z,22.69
2023-08-22T07:55:36.339Z,22.96
2023-08-22T07:58:04.339Z,23.34
2023-08-22T08:00:32.288Z,24.09
2023-08-22T08:03:00.722Z,24.55
2023-08-22T08:05:28.624Z,24.77
2023-08-22T08:07:56.699Z,24.92
2023-08-22T08:10:26.066Z,25.05
2023-08-22T08:12:54.201Z,25.14
2023-08-22T08:15:22.275Z,25.25
2023-08-22T08:17:50.265Z,25.59
2023-08-22T08:20:18.303Z,25.49
2023-08-22T08:22:46.458Z,25.64
2023-08-22T08:25:15.256Z,26.19
2023-08-22T08:27:47.239Z,26.53
2023-08-22T08:30:17.435Z,26.42
2023-08-22T08:32:46.004Z,26.51
2023-08-22T08:35:14.367Z,25.97
2023-08-22T08:37:42.628Z,25.84
2023-08-22T08:40:11.345Z,25.76
2023-08-22T08:42:39.716Z,25.50
2023-08-22T08:45:09.704Z,25.20
2023-08-22T08:47:38.869Z,24.88
2023-08-22T08:50:08.520Z,24.60
2023-08-22T08:52:36.606Z,24.66
2023-08-22T08:55:06.638Z,24.46
2023-08-22T08:57:34.620Z,24.20
2023-08-22T09:00:03.537Z,24.09
2023-08-22T09:02:33.346Z,23.99
2023-08-22T09:05:01.507Z,24.11
2023-08-22T09:07:30.025Z,24.37
2023-08-22T09:09:59.586Z,24.28
2023-08-22T09:12:34.717Z,24.29
2023-08-22T09:15:02.744Z,24.35
2023-08-22T09:17:32.644Z,24.41
2023-08-22T09:20:00.777Z,24.45
2023-08-22T09:22:32.426Z,24.47
2023-08-22T09:25:00.474Z,24.54
2023-08-22T09:27:28.804Z,24.68
2023-08-22T09:30:07.213Z,25.13
2023-08-22T09:32:36.581Z,25.27
2023-08-22T09:35:07.402Z,25.77
2023-08-22T09:37:36.525Z,25.86
2023-08-22T09:40:06.824Z,25.70
2023-08-22T09:42:35.686Z,25.73
2023-08-22T09:45:07.258Z,25.69
2023-08-22T09:47:42.152Z,25.65
2023-08-22T09:50:13.194Z,25.53
2023-08-22T09:52:42.612Z,25.96
2023-08-22T09:55:13.208Z,26.01
2023-08-22T09:57:41.854Z,26.21
2023-08-22T10:00:12.287Z,25.87
2023-08-22T10:02:42.261Z,25.57
2023-08-22T10:05:11.634Z,25.41
2023-08-22T10:07:40.707Z,25.40
2023-08-22T10:10:09.921Z,25.13
2023-08-22T10:12:39.584Z,24.51
2023-08-22T10:15:09.812Z,24.34
2023-08-22T10:17:41.497Z,24.25
2023-08-22T10:20:13.462Z,24.11
2023-08-22T10:22:41.471Z,23.82
2023-08-22T10:25:09.911Z,24.00
2023-08-22T10:27:39.564Z,24.20
2023-08-22T10:30:21.046Z,24.38
2023-08-22T10:33:17.000Z,24.83
2023-08-22T10:36:04.141Z,25.34
2023-08-22T10:38:49.282Z,25.62
2023-08-22T10:41:17.237Z,25.29
2023-08-22T10:43:45.214Z,25.45
2023-08-22T10:46:14.031Z,25.92
2023-08-22T10:48:43.565Z,25.67
2023-08-22T10:51:11.948Z,26.01
2023-08-22T10:53:44.097Z,26.36
2023-08-22T10:56:20.698Z,26.31
2023-08-22T10:58:59.650Z,26.50
2023-08-22T11:01:28.022Z,27.15
2023-08-22T11:03:58.204Z,27.46
2023-08-22T11:06:27.004Z,26.93
2023-08-22T11:08:55.380Z,27.25
2023-08-22T11:11:23.570Z,27.32
2023-08-22T11:13:51.550Z,27.20
2023-08-22T11:16:20.841Z,26.86
2023-08-22T11:18:50.521Z,26.84
2023-08-22T11:21:19.952Z,26.77
2023-08-22T11:23:47.926Z,26.88
2023-08-22T11:26:21.942Z,26.81
2023-08-22T11:28:50.206Z,26.62
2023-08-22T11:31:19.209Z,26.89
2023-08-22T11:33:48.666Z,27.35
2023-08-22T11:36:16.950Z,27.34
2023-08-22T11:38:49.220Z,27.48
2023-08-22T11:41:17.341Z,27.10
2023-08-22T11:43:52.824Z,26.85
2023-08-22T11:46:25.867Z,26.93
2023-08-22T11:48:54.702Z,27.13
2023-08-22T11:51:24.979Z,27.15
2023-08-22T11:53:57.721Z,27.14
2023-08-22T11:56:25.748Z,26.82
2023-08-22T11:58:54.394Z,27.16
2023-08-22T12:01:24.200Z,26.95
2023-08-22T12:03:57.326Z,26.71
2023-08-22T12:06:25.932Z,26.85
2023-08-22T12:09:03.988Z,27.16
2023-08-22T12:11:36.011Z,27.31
2023-08-22T12:14:04.560Z,27.23
2023-08-22T12:16:32.823Z,27.03
2023-08-22T12:19:14.608Z,26.91
2023-08-22T12:21:42.676Z,26.99
2023-08-22T12:24:12.139Z,26.92
2023-08-22T12:26:49.382Z,27.41
2023-08-22T12:29:35.008Z,27.78
2023-08-22T12:32:09.568Z,27.63
2023-08-22T12:34:47.689Z,27.96
2023-08-22T12:37:22.036Z,27.75
2023-08-22T12:39:52.468Z,27.59
2023-08-22T12:46:00.544Z,27.41
2023-08-22T12:48:39.844Z,27.31
2023-08-22T12:51:11.558Z,27.15
2023-08-22T12:53:55.432Z,27.29
2023-08-22T12:56:38.767Z,27.08
2023-08-22T12:59:12.831Z,27.22
2023-08-22T13:01:56.546Z,27.03
2023-08-22T13:04:27.117Z,27.23
2023-08-22T13:06:56.371Z,27.33
2023-08-22T13:09:24.567Z,27.41
2023-08-22T13:11:55.526Z,27.52
2023-08-22T13:14:27.807Z,27.33
2023-08-22T13:17:02.265Z,27.19
2023-08-22T13:19:41.634Z,26.85
2023-08-22T13:22:11.202Z,26.87
2023-08-22T13:24:55.181Z,26.75
2023-08-22T13:27:31.080Z,26.95
2023-08-22T13:30:18.921Z,26.90
2023-08-22T13:33:01.605Z,27.19
2023-08-22T13:35:30.639Z,27.09
2023-08-22T13:38:06.010Z,26.98
2023-08-22T13:40:52.825Z,26.82
2023-08-22T13:43:22.899Z,26.65
2023-08-22T13:45:57.551Z,26.51
2023-08-22T13:48:40.300Z,26.25
2023-08-22T13:51:11.377Z,26.16
2023-08-22T13:53:39.361Z,26.17
2023-08-22T13:56:08.448Z,26.23
2023-08-22T13:58:37.794Z,26.28
2023-08-22T14:01:07.347Z,26.51
2023-08-22T14:03:35.765Z,26.63
2023-08-22T14:06:05.092Z,26.71
2023-08-22T14:08:33.012Z,26.64
2023-08-22T14:11:01.641Z,26.59
2023-08-22T14:13:29.947Z,26.32
2023-08-22T14:15:59.529Z,26.19
2023-08-22T14:18:27.658Z,26.01
2023-08-22T14:20:55.664Z,26.00
2023-08-22T14:23:26.326Z,25.98
2023-08-22T14:25:57.455Z,26.00
2023-08-22T14:28:25.423Z,25.92
2023-08-22T14:31:01.443Z,25.99
2023-08-22T14:33:29.637Z,26.06
2023-08-22T14:35:58.250Z,26.10
2023-08-22T14:38:26.264Z,25.94
2023-08-22T14:40:55.678Z,25.95
2023-08-22T14:43:23.874Z,25.97
2023-08-22T14:45:52.717Z,26.02
2023-08-22T14:48:22.284Z,25.94
2023-08-22T14:50:53.890Z,26.03
2023-08-22T14:53:28.029Z,26.02
2023-08-22T14:56:00.703Z,25.92
2023-08-22T14:58:29.383Z,26.01
2023-08-22T15:01:00.274Z,26.03
2023-08-22T15:03:29.757Z,26.07
2023-08-22T15:05:57.656Z,26.21
2023-08-22T15:08:25.599Z,26.11
2023-08-22T15:10:55.132Z,26.17
2023-08-22T15:13:23.065Z,26.27
2023-08-22T15:15:54.865Z,26.24
2023-08-22T15:18:23.377Z,26.25
2023-08-22T15:20:53.593Z,26.25
2023-08-22T15:23:23.565Z,26.06
2023-08-22T15:25:54.392Z,26.00
2023-08-22T15:28:23.216Z,25.88
2023-08-22T15:31:08.875Z,25.89
2023-08-22T15:33:37.236Z,25.85
2023-08-22T15:36:07.071Z,25.92
2023-08-22T15:38:37.360Z,25.79
2023-08-22T15:41:07.087Z,25.83
2023-08-22T15:43:35.256Z,25.71
2023-08-22T15:46:03.421Z,25.68
2023-08-22T15:48:31.304Z,25.70
2023-08-22T15:50:59.854Z,25.71
2023-08-22T15:53:29.269Z,25.62
2023-08-22T15:55:57.420Z,25.61
2023-08-22T15:58:26.060Z,25.57
2023-08-22T16:00:53.986Z,25.52
2023-08-22T16:03:21.952Z,25.40
2023-08-22T16:05:49.974Z,25.33
2023-08-22T16:08:17.972Z,25.26
2023-08-22T16:10:47.234Z,25.38
2023-08-22T16:13:15.689Z,25.38
2023-08-22T16:15:49.256Z,25.50
2023-08-22T16:18:17.396Z,25.44
2023-08-22T16:20:46.159Z,25.55
2023-08-22T16:23:14.144Z,25.56
2023-08-22T16:25:44.054Z,25.59
2023-08-22T16:28:13.358Z,25.44
2023-08-22T16:30:42.782Z,25.42
2023-08-22T16:33:11.004Z,25.38
2023-08-22T16:35:39.732Z,25.37
2023-08-22T16:38:07.828Z,25.33
2023-08-22T16:40:35.741Z,25.32
2023-08-22T16:43:06.878Z,25.20
2023-08-22T16:45:36.166Z,25.15
2023-08-22T16:48:04.307Z,25.02
2023-08-22T16:50:32.279Z,24.96
2023-08-22T16:53:02.576Z,24.86
2023-08-22T16:55:33.120Z,24.80
2023-08-22T16:58:00.958Z,24.72
2023-08-22T17:00:28.958Z,24.63
2023-08-22T17:02:58.268Z,24.60
2023-08-22T17:05:27.263Z,24.46
2023-08-22T17:07:58.900Z,24.38
2023-08-22T17:10:27.312Z,24.31
2023-08-22T17:12:55.540Z,24.21
2023-08-22T17:15:26.602Z,24.11
2023-08-22T17:17:55.029Z,24.03
2023-08-22T17:20:26.716Z,23.92
2023-08-22T17:22:54.828Z,23.81
2023-08-22T17:25:27.109Z,23.70
2023-08-22T17:27:56.869Z,23.57
2023-08-22T17:30:25.909Z,23.50
2023-08-22T17:32:55.648Z,23.38
2023-08-22T17:35:25.001Z,23.29
2023-08-22T17:37:52.896Z,23.19
2023-08-22T17:40:20.787Z,23.08
2023-08-22T17:42:48.663Z,22.96
2023-08-22T17:45:17.396Z,22.83
2023-08-22T17:47:45.848Z,22.73
2023-08-22T17:50:14.455Z,22.65
2023-08-22T17:52:43.845Z,22.53
2023-08-22T17:55:12.466Z,22.40
2023-08-22T17:57:41.002Z,22.28
2023-08-22T18:00:13.070Z,22.16
2023-08-22T18:02:41.236Z,22.03
2023-08-22T18:05:09.864Z,21.93
2023-08-22T18:07:38.315Z,21.84
2023-08-22T18:10:16.003Z,21.76
2023-08-22T18:12:44.037Z,21.64
2023-08-22T18:15:12.450Z,21.55
2023-08-22T18:17:40.608Z,21.45
2023-08-22T18:20:11.428Z,21.35
2023-08-22T18:22:40.238Z,21.26
2023-08-22T18:25:10.614Z,21.20
2023-08-22T18:27:39.090Z,21.11
2023-08-22T18:30:08.561Z,21.03
2023-08-22T18:32:36.616Z,20.92
2023-08-22T18:35:05.349Z,20.83
2023-08-22T18:37:34.506Z,20.75
2023-08-22T18:40:02.723Z,20.70
2023-08-22T18:42:32.066Z,20.63
2023-08-22T18:45:05.111Z,20.53
2023-08-22T18:47:33.169Z,20.45
2023-08-22T18:50:04.469Z,20.40
2023-08-22T18:52:33.666Z,20.30
2023-08-22T18:55:03.161Z,20.20
2023-08-22T18:57:32.638Z,20.16
2023-08-22T19:00:00.661Z,20.13
2023-08-22T19:02:28.681Z,20.08
2023-08-22T19:04:56.857Z,20.07
2023-08-22T19:07:28.557Z,19.99
2023-08-22T19:09:56.802Z,19.99
2023-08-22T19:12:24.930Z,19.93
2023-08-22T19:14:54.437Z,19.83
2023-08-22T19:17:22.910Z,19.78
2023-08-22T19:19:53.468Z,19.71
2023-08-22T19:22:21.540Z,19.58
2023-08-22T19:24:50.180Z,19.52
2023-08-22T19:27:20.385Z,19.47
2023-08-22T19:29:50.934Z,19.46
2023-08-22T19:32:35.061Z,19.33
2023-08-22T19:35:09.573Z,19.49
2023-08-22T19:37:37.597Z,20.61
2023-08-22T19:40:06.180Z,21.38
2023-08-22T19:42:34.155Z,21.83
2023-08-22T19:45:03.088Z,22.26
2023-08-22T19:47:32.980Z,22.23
2023-08-22T19:50:06.332Z,21.90
2023-08-22T19:52:34.433Z,22.18
2023-08-22T19:55:02.854Z,21.74
2023-08-22T19:57:31.172Z,21.85
2023-08-22T19:59:59.438Z,22.28
2023-08-22T20:02:31.082Z,22.99
2023-08-22T20:05:00.645Z,23.22
2023-08-22T20:07:28.705Z,23.39
2023-08-22T20:09:56.752Z,23.36
2023-08-22T20:12:24.816Z,22.75
2023-08-22T20:14:52.955Z,22.46
2023-08-22T20:17:20.964Z,22.26
2023-08-22T20:19:49.096Z,22.23
2023-08-22T20:22:18.627Z,22.04
2023-08-22T20:24:46.707Z,21.98
2023-08-22T20:27:14.654Z,22.03
2023-08-22T20:29:42.646Z,22.55
2023-08-22T20:32:10.755Z,22.77
2023-08-22T20:34:38.846Z,21.60
2023-08-22T20:37:06.859Z,20.97
2023-08-22T20:39:36.659Z,20.51
2023-08-22T20:42:05.132Z,20.56
2023-08-22T20:44:33.095Z,21.67
2023-08-22T20:47:01.122Z,21.80
2023-08-22T20:49:29.548Z,21.76
2023-08-22T20:51:57.563Z,22.03
2023-08-22T20:54:28.468Z,22.30
2023-08-22T20:56:57.965Z,22.31
2023-08-22T20:59:26.008Z,21.95
2023-08-22T21:01:54.059Z,22.12
2023-08-22T21:04:24.544Z,22.00
2023-08-22T21:06:52.580Z,22.05
2023-08-22T21:09:20.558Z,21.52
2023-08-22T21:11:48.630Z,20.80
2023-08-22T21:14:18.145Z,20.41
2023-08-22T21:16:46.310Z,20.64
2023-08-22T21:19:14.390Z,20.50
2023-08-22T21:21:42.470Z,20.90
2023-08-22T21:24:12.184Z,21.32
2023-08-22T21:26:41.687Z,21.55
2023-08-22T21:29:10.766Z,21.87
2023-08-22T21:31:40.656Z,21.83
2023-08-22T21:34:08.912Z,21.83
2023-08-22T21:36:36.907Z,21.89
2023-08-22T21:39:05.205Z,21.86
2023-08-22T21:41:33.287Z,21.54
2023-08-22T21:44:01.341Z,20.59
2023-08-22T21:46:29.397Z,19.67
2023-08-22T21:48:58.901Z,19.11
2023-08-22T21:51:26.923Z,18.55
2023-08-22T21:53:54.878Z,18.12
2023-08-22T21:56:23.092Z,17.81
2023-08-22T21:58:51.092Z,17.58
2023-08-22T22:01:19.260Z,17.39
2023-08-22T22:03:47.302Z,17.30
2023-08-22T22:06:17.652Z,17.19
2023-08-22T22:08:45.660Z,17.14
2023-08-22T22:11:13.683Z,17.07
2023-08-22T22:13:41.734Z,16.99
2023-08-22T22:16:09.875Z,16.93
2023-08-22T22:18:38.280Z,16.94
2023-08-22T22:21:06.949Z,16.88
2023-08-22T22:23:36.401Z,16.84
2023-08-22T22:26:07.246Z,16.74
2023-08-22T22:28:38.295Z,16.75
2023-08-22T22:31:10.261Z,16.73
2023-08-22T22:33:38.817Z,16.69
2023-08-22T22:36:07.680Z,16.66
2023-08-22T22:38:37.292Z,16.66
2023-08-22T22:41:06.954Z,16.62
2023-08-22T22:43:35.018Z,16.57
2023-08-22T22:46:03.452Z,16.58
2023-08-22T22:48:31.587Z,16.56
2023-08-22T22:50:59.667Z,16.51
2023-08-22T22:53:27.818Z,16.48
2023-08-22T22:55:57.311Z,16.47
2023-08-22T22:58:26.124Z,16.45
2023-08-22T23:00:54.219Z,16.40
2023-08-22T23:03:23.495Z,16.39
2023-08-22T23:05:51.724Z,16.35
2023-08-22T23:08:20.072Z,16.27
2023-08-22T23:10:48.104Z,16.24
2023-08-22T23:13:18.048Z,16.23
2023-08-22T23:15:46.173Z,16.19
2023-08-22T23:18:14.169Z,16.12
2023-08-22T23:20:42.275Z,16.11
2023-08-22T23:23:10.414Z,16.09
2023-08-22T23:25:38.416Z,16.08
2023-08-22T23:28:07.181Z,16.11
2023-08-22T23:30:36.607Z,16.08
2023-08-22T23:33:04.879Z,16.05
2023-08-22T23:35:32.833Z,16.08
2023-08-22T23:38:00.847Z,16.11
2023-08-22T23:40:30.412Z,16.00
2023-08-22T23:42:58.880Z,15.90
2023-08-22T23:45:28.814Z,15.84
2023-08-22T23:47:59.587Z,15.76
2023-08-22T23:50:28.079Z,15.77
2023-08-22T23:52:56.610Z,15.71
2023-08-22T23:55:24.916Z,15.76
2023-08-22T23:57:52.974Z,15.70
